sensor_id;sensor_type;location;lat;lon;timestamp;P1;durP1;ratioP1;P2;durP2;ratioP2
80411;SDS011;69749;42.684;23.360;2023-08-24T00:00:29;16.60;;;11.07;;
80411;SDS011;69749;42.684;23.360;2023-08-24T00:02:57;13.30;;;10.88;;
80411;SDS011;69749;42.684;23.360;2023-08-24T00:05:23;12.05;;;10.40;;
80411;SDS011;69749;42.684;23.360;2023-08-24T00:07:48;11.77;;;10.40;;
80411;SDS011;69749;42.684;23.360;2023-08-24T00:10:14;12.90;;;11.10;;
80411;SDS011;69749;42.684;23.360;2023-08-24T00:12:39;16.38;;;11.57;;
80411;SDS011;69749;42.684;23.360;2023-08-24T00:15:07;12.48;;;10.32;;
80411;SDS011;69749;42.684;23.360;2023-08-24T00:17:34;13.32;;;10.93;;
80411;SDS011;69749;42.684;23.360;2023-08-24T00:20:00;14.63;;;11.52;;
80411;SDS011;69749;42.684;23.360;2023-08-24T00:22:29;13.75;;;11.20;;
80411;SDS011;69749;42.684;23.360;2023-08-24T00:24:54;17.65;;;12.45;;
80411;SDS011;69749;42.684;23.360;2023-08-24T00:27:20;19.92;;;12.90;;
80411;SDS011;69749;42.684;23.360;2023-08-24T00:29:45;17.50;;;11.32;;
80411;SDS011;69749;42.684;23.360;2023-08-24T00:32:11;17.50;;;13.15;;
80411;SDS011;69749;42.684;23.360;2023-08-24T00:34:36;17.00;;;11.75;;
80411;SDS011;69749;42.684;23.360;2023-08-24T00:37:02;12.93;;;10.55;;
80411;SDS011;69749;42.684;23.360;2023-08-24T00:39:27;13.63;;;11.57;;
80411;SDS011;69749;42.684;23.360;2023-08-24T00:41:53;16.67;;;11.55;;
80411;SDS011;69749;42.684;23.360;2023-08-24T00:44:19;14.88;;;11.27;;
80411;SDS011;69749;42.684;23.360;2023-08-24T00:46:45;15.23;;;11.38;;
80411;SDS011;69749;42.684;23.360;2023-08-24T00:49:10;15.13;;;12.18;;
80411;SDS011;69749;42.684;23.360;2023-08-24T00:51:36;16.17;;;11.68;;
80411;SDS011;69749;42.684;23.360;2023-08-24T00:54:02;14.45;;;12.05;;
80411;SDS011;69749;42.684;23.360;2023-08-24T00:56:28;16.67;;;12.90;;
80411;SDS011;69749;42.684;23.360;2023-08-24T00:58:55;14.13;;;11.98;;
80411;SDS011;69749;42.684;23.360;2023-08-24T01:01:21;15.85;;;12.05;;
80411;SDS011;69749;42.684;23.360;2023-08-24T01:03:47;15.55;;;13.10;;
80411;SDS011;69749;42.684;23.360;2023-08-24T01:06:12;17.60;;;14.10;;
80411;SDS011;69749;42.684;23.360;2023-08-24T01:08:38;16.98;;;14.25;;
80411;SDS011;69749;42.684;23.360;2023-08-24T01:14:28;14.75;;;12.55;;
80411;SDS011;69749;42.684;23.360;2023-08-24T01:17:04;14.90;;;12.07;;
80411;SDS011;69749;42.684;23.360;2023-08-24T01:19:34;16.17;;;13.77;;
80411;SDS011;69749;42.684;23.360;2023-08-24T01:24:54;19.42;;;13.52;;
80411;SDS011;69749;42.684;23.360;2023-08-24T01:27:28;22.27;;;14.27;;
80411;SDS011;69749;42.684;23.360;2023-08-24T01:29:55;18.48;;;13.75;;
80411;SDS011;69749;42.684;23.360;2023-08-24T01:32:22;19.55;;;13.10;;
80411;SDS011;69749;42.684;23.360;2023-08-24T01:34:47;19.88;;;13.98;;
80411;SDS011;69749;42.684;23.360;2023-08-24T01:37:13;17.50;;;12.38;;
80411;SDS011;69749;42.684;23.360;2023-08-24T01:42:10;18.15;;;12.88;;
80411;SDS011;69749;42.684;23.360;2023-08-24T01:44:42;16.40;;;11.98;;
80411;SDS011;69749;42.684;23.360;2023-08-24T01:47:09;16.90;;;12.30;;
80411;SDS011;69749;42.684;23.360;2023-08-24T01:49:36;16.60;;;12.80;;
80411;SDS011;69749;42.684;23.360;2023-08-24T01:52:03;15.88;;;11.50;;
80411;SDS011;69749;42.684;23.360;2023-08-24T01:54:29;15.52;;;10.85;;
80411;SDS011;69749;42.684;23.360;2023-08-24T01:56:56;14.23;;;11.30;;
80411;SDS011;69749;42.684;23.360;2023-08-24T01:59:21;14.85;;;11.50;;
80411;SDS011;69749;42.684;23.360;2023-08-24T02:01:47;14.02;;;11.45;;
80411;SDS011;69749;42.684;23.360;2023-08-24T02:04:12;13.25;;;10.00;;
80411;SDS011;69749;42.684;23.360;2023-08-24T02:06:37;13.32;;;10.90;;
80411;SDS011;69749;42.684;23.360;2023-08-24T02:09:03;13.73;;;11.07;;
80411;SDS011;69749;42.684;23.360;2023-08-24T02:11:28;14.48;;;11.10;;
80411;SDS011;69749;42.684;23.360;2023-08-24T02:13:53;14.13;;;11.20;;
80411;SDS011;69749;42.684;23.360;2023-08-24T02:16:19;13.63;;;10.95;;
80411;SDS011;69749;42.684;23.360;2023-08-24T02:18:44;12.63;;;10.65;;
80411;SDS011;69749;42.684;23.360;2023-08-24T02:21:10;13.80;;;10.38;;
80411;SDS011;69749;42.684;23.360;2023-08-24T02:23:37;13.30;;;10.15;;
80411;SDS011;69749;42.684;23.360;2023-08-24T02:26:03;14.30;;;10.93;;
80411;SDS011;69749;42.684;23.360;2023-08-24T02:28:29;14.00;;;11.45;;
80411;SDS011;69749;42.684;23.360;2023-08-24T02:30:54;15.45;;;10.93;;
80411;SDS011;69749;42.684;23.360;2023-08-24T02:33:20;13.40;;;11.25;;
80411;SDS011;69749;42.684;23.360;2023-08-24T02:35:48;12.90;;;10.75;;
80411;SDS011;69749;42.684;23.360;2023-08-24T02:38:13;13.35;;;10.90;;
80411;SDS011;69749;42.684;23.360;2023-08-24T02:40:39;14.68;;;11.73;;
80411;SDS011;69749;42.684;23.360;2023-08-24T02:43:04;15.43;;;11.60;;
80411;SDS011;69749;42.684;23.360;2023-08-24T02:45:29;17.80;;;12.05;;
80411;SDS011;69749;42.684;23.360;2023-08-24T02:47:55;17.00;;;12.68;;
80411;SDS011;69749;42.684;23.360;2023-08-24T02:50:20;15.93;;;12.52;;
80411;SDS011;69749;42.684;23.360;2023-08-24T02:52:46;14.82;;;11.70;;
80411;SDS011;69749;42.684;23.360;2023-08-24T02:55:11;16.80;;;12.70;;
80411;SDS011;69749;42.684;23.360;2023-08-24T02:57:37;16.48;;;12.43;;
80411;SDS011;69749;42.684;23.360;2023-08-24T03:00:03;16.65;;;12.43;;
80411;SDS011;69749;42.684;23.360;2023-08-24T03:02:31;16.90;;;12.38;;
80411;SDS011;69749;42.684;23.360;2023-08-24T03:04:57;15.23;;;11.55;;
80411;SDS011;69749;42.684;23.360;2023-08-24T03:07:22;14.20;;;10.98;;
80411;SDS011;69749;42.684;23.360;2023-08-24T03:09:47;14.48;;;11.82;;
80411;SDS011;69749;42.684;23.360;2023-08-24T03:12:13;13.00;;;11.35;;
80411;SDS011;69749;42.684;23.360;2023-08-24T03:14:38;15.18;;;11.40;;
80411;SDS011;69749;42.684;23.360;2023-08-24T03:17:04;14.02;;;12.18;;
80411;SDS011;69749;42.684;23.360;2023-08-24T03:19:29;17.27;;;11.35;;
80411;SDS011;69749;42.684;23.360;2023-08-24T03:21:55;12.88;;;11.27;;
80411;SDS011;69749;42.684;23.360;2023-08-24T03:24:20;16.95;;;11.48;;
80411;SDS011;69749;42.684;23.360;2023-08-24T03:26:45;13.13;;;11.43;;
80411;SDS011;69749;42.684;23.360;2023-08-24T03:29:11;16.75;;;11.02;;
80411;SDS011;69749;42.684;23.360;2023-08-24T03:31:36;13.90;;;11.18;;
80411;SDS011;69749;42.684;23.360;2023-08-24T03:34:02;16.13;;;12.10;;
80411;SDS011;69749;42.684;23.360;2023-08-24T03:36:29;15.35;;;12.07;;
80411;SDS011;69749;42.684;23.360;2023-08-24T03:38:54;13.70;;;11.63;;
80411;SDS011;69749;42.684;23.360;2023-08-24T03:41:20;15.63;;;11.85;;
80411;SDS011;69749;42.684;23.360;2023-08-24T03:43:45;16.45;;;12.95;;
80411;SDS011;69749;42.684;23.360;2023-08-24T03:46:10;17.08;;;11.85;;
80411;SDS011;69749;42.684;23.360;2023-08-24T03:48:36;14.77;;;12.00;;
80411;SDS011;69749;42.684;23.360;2023-08-24T03:51:01;15.93;;;11.95;;
80411;SDS011;69749;42.684;23.360;2023-08-24T03:53:27;16.55;;;12.55;;
80411;SDS011;69749;42.684;23.360;2023-08-24T03:55:52;19.63;;;13.45;;
80411;SDS011;69749;42.684;23.360;2023-08-24T03:58:18;21.83;;;14.20;;
80411;SDS011;69749;42.684;23.360;2023-08-24T04:00:44;20.92;;;14.52;;
80411;SDS011;69749;42.684;23.360;2023-08-24T04:03:10;21.13;;;14.73;;
80411;SDS011;69749;42.684;23.360;2023-08-24T04:05:36;21.38;;;15.60;;
80411;SDS011;69749;42.684;23.360;2023-08-24T04:08:01;20.27;;;15.40;;
80411;SDS011;69749;42.684;23.360;2023-08-24T04:10:27;25.75;;;15.27;;
80411;SDS011;69749;42.684;23.360;2023-08-24T04:12:54;20.02;;;14.45;;
80411;SDS011;69749;42.684;23.360;2023-08-24T04:15:22;24.88;;;15.20;;
80411;SDS011;69749;42.684;23.360;2023-08-24T04:17:48;22.30;;;15.15;;
80411;SDS011;69749;42.684;23.360;2023-08-24T04:20:14;22.48;;;14.50;;
80411;SDS011;69749;42.684;23.360;2023-08-24T04:22:39;21.05;;;15.57;;
80411;SDS011;69749;42.684;23.360;2023-08-24T04:25:05;21.30;;;15.07;;
80411;SDS011;69749;42.684;23.360;2023-08-24T04:27:31;21.35;;;14.13;;
80411;SDS011;69749;42.684;23.360;2023-08-24T04:30:00;21.65;;;14.18;;
80411;SDS011;69749;42.684;23.360;2023-08-24T04:32:26;22.38;;;13.90;;
80411;SDS011;69749;42.684;23.360;2023-08-24T04:34:52;21.42;;;13.93;;
80411;SDS011;69749;42.684;23.360;2023-08-24T04:37:18;18.90;;;13.45;;
80411;SDS011;69749;42.684;23.360;2023-08-24T04:39:43;21.25;;;15.35;;
80411;SDS011;69749;42.684;23.360;2023-08-24T04:42:09;22.67;;;13.98;;
80411;SDS011;69749;42.684;23.360;2023-08-24T04:44:34;23.63;;;14.50;;
80411;SDS011;69749;42.684;23.360;2023-08-24T04:46:59;23.35;;;14.60;;
80411;SDS011;69749;42.684;23.360;2023-08-24T04:49:25;16.75;;;14.18;;
80411;SDS011;69749;42.684;23.360;2023-08-24T04:51:50;18.38;;;13.75;;
80411;SDS011;69749;42.684;23.360;2023-08-24T04:54:16;20.85;;;14.43;;
80411;SDS011;69749;42.684;23.360;2023-08-24T04:56:42;22.55;;;14.90;;
80411;SDS011;69749;42.684;23.360;2023-08-24T04:59:08;21.27;;;14.73;;
80411;SDS011;69749;42.684;23.360;2023-08-24T05:01:33;23.73;;;16.00;;
80411;SDS011;69749;42.684;23.360;2023-08-24T05:03:59;19.83;;;14.82;;
80411;SDS011;69749;42.684;23.360;2023-08-24T05:06:25;22.38;;;15.70;;
80411;SDS011;69749;42.684;23.360;2023-08-24T05:08:50;22.25;;;15.57;;
80411;SDS011;69749;42.684;23.360;2023-08-24T05:11:17;24.98;;;14.02;;
80411;SDS011;69749;42.684;23.360;2023-08-24T05:13:43;23.10;;;15.77;;
80411;SDS011;69749;42.684;23.360;2023-08-24T05:16:09;20.20;;;14.45;;
80411;SDS011;69749;42.684;23.360;2023-08-24T05:18:35;17.52;;;13.73;;
80411;SDS011;69749;42.684;23.360;2023-08-24T05:21:01;24.40;;;15.25;;
80411;SDS011;69749;42.684;23.360;2023-08-24T05:23:28;22.90;;;15.32;;
80411;SDS011;69749;42.684;23.360;2023-08-24T05:25:54;26.00;;;15.65;;
80411;SDS011;69749;42.684;23.360;2023-08-24T05:28:19;21.65;;;15.85;;
80411;SDS011;69749;42.684;23.360;2023-08-24T05:30:45;25.95;;;15.70;;
80411;SDS011;69749;42.684;23.360;2023-08-24T05:33:10;23.13;;;16.13;;
80411;SDS011;69749;42.684;23.360;2023-08-24T05:35:35;27.80;;;15.35;;
80411;SDS011;69749;42.684;23.360;2023-08-24T05:38:01;24.85;;;15.65;;
80411;SDS011;69749;42.684;23.360;2023-08-24T05:40:26;24.48;;;15.23;;
80411;SDS011;69749;42.684;23.360;2023-08-24T05:42:51;21.60;;;14.70;;
80411;SDS011;69749;42.684;23.360;2023-08-24T05:45:18;26.70;;;15.63;;
80411;SDS011;69749;42.684;23.360;2023-08-24T05:47:43;26.58;;;16.30;;
80411;SDS011;69749;42.684;23.360;2023-08-24T05:50:09;25.00;;;16.77;;
80411;SDS011;69749;42.684;23.360;2023-08-24T05:52:36;23.77;;;16.20;;
80411;SDS011;69749;42.684;23.360;2023-08-24T05:55:02;20.75;;;15.60;;
80411;SDS011;69749;42.684;23.360;2023-08-24T05:57:27;24.17;;;14.98;;
80411;SDS011;69749;42.684;23.360;2023-08-24T05:59:53;20.67;;;15.38;;
80411;SDS011;69749;42.684;23.360;2023-08-24T06:02:18;21.08;;;15.02;;
80411;SDS011;69749;42.684;23.360;2023-08-24T06:04:44;21.88;;;14.40;;
80411;SDS011;69749;42.684;23.360;2023-08-24T06:07:09;21.52;;;16.08;;
80411;SDS011;69749;42.684;23.360;2023-08-24T06:09:34;23.02;;;15.43;;
80411;SDS011;69749;42.684;23.360;2023-08-24T06:12:00;19.08;;;14.50;;
80411;SDS011;69749;42.684;23.360;2023-08-24T06:14:25;18.83;;;14.48;;
80411;SDS011;69749;42.684;23.360;2023-08-24T06:16:51;19.42;;;14.98;;
80411;SDS011;69749;42.684;23.360;2023-08-24T06:19:18;20.40;;;15.45;;
80411;SDS011;69749;42.684;23.360;2023-08-24T06:21:43;22.13;;;15.98;;
80411;SDS011;69749;42.684;23.360;2023-08-24T06:24:09;19.98;;;15.63;;
80411;SDS011;69749;42.684;23.360;2023-08-24T06:26:35;18.10;;;14.73;;
80411;SDS011;69749;42.684;23.360;2023-08-24T06:29:00;18.75;;;15.07;;
80411;SDS011;69749;42.684;23.360;2023-08-24T06:31:25;22.90;;;15.38;;
80411;SDS011;69749;42.684;23.360;2023-08-24T06:33:51;20.45;;;16.80;;
80411;SDS011;69749;42.684;23.360;2023-08-24T06:36:18;19.20;;;14.60;;
80411;SDS011;69749;42.684;23.360;2023-08-24T06:38:46;21.17;;;15.95;;
80411;SDS011;69749;42.684;23.360;2023-08-24T06:41:11;19.15;;;15.57;;
80411;SDS011;69749;42.684;23.360;2023-08-24T06:43:37;19.30;;;13.38;;
80411;SDS011;69749;42.684;23.360;2023-08-24T06:46:06;18.75;;;14.00;;
80411;SDS011;69749;42.684;23.360;2023-08-24T06:48:34;18.35;;;14.93;;
80411;SDS011;69749;42.684;23.360;2023-08-24T06:51:00;15.18;;;13.57;;
80411;SDS011;69749;42.684;23.360;2023-08-24T06:53:25;20.25;;;15.55;;
80411;SDS011;69749;42.684;23.360;2023-08-24T06:55:57;21.55;;;15.40;;
80411;SDS011;69749;42.684;23.360;2023-08-24T06:58:23;23.38;;;17.95;;
80411;SDS011;69749;42.684;23.360;2023-08-24T07:00:49;21.15;;;15.73;;
80411;SDS011;69749;42.684;23.360;2023-08-24T07:03:18;20.83;;;15.18;;
80411;SDS011;69749;42.684;23.360;2023-08-24T07:05:44;19.40;;;14.82;;
80411;SDS011;69749;42.684;23.360;2023-08-24T07:08:10;19.63;;;15.00;;
80411;SDS011;69749;42.684;23.360;2023-08-24T07:10:36;18.70;;;14.95;;
80411;SDS011;69749;42.684;23.360;2023-08-24T07:13:01;21.55;;;15.52;;
80411;SDS011;69749;42.684;23.360;2023-08-24T07:15:27;20.73;;;15.55;;
80411;SDS011;69749;42.684;23.360;2023-08-24T07:17:52;19.27;;;15.27;;
80411;SDS011;69749;42.684;23.360;2023-08-24T07:20:18;19.60;;;15.73;;
80411;SDS011;69749;42.684;23.360;2023-08-24T07:25:10;18.45;;;14.50;;
80411;SDS011;69749;42.684;23.360;2023-08-24T07:27:37;19.55;;;14.70;;
80411;SDS011;69749;42.684;23.360;2023-08-24T07:30:02;18.10;;;15.57;;
80411;SDS011;69749;42.684;23.360;2023-08-24T07:32:30;17.80;;;13.52;;
80411;SDS011;69749;42.684;23.360;2023-08-24T07:34:56;15.63;;;13.70;;
80411;SDS011;69749;42.684;23.360;2023-08-24T07:37:24;19.85;;;13.75;;
80411;SDS011;69749;42.684;23.360;2023-08-24T07:39:49;16.27;;;14.25;;
80411;SDS011;69749;42.684;23.360;2023-08-24T07:42:15;18.13;;;13.85;;
80411;SDS011;69749;42.684;23.360;2023-08-24T07:44:40;15.90;;;13.90;;
80411;SDS011;69749;42.684;23.360;2023-08-24T07:47:06;16.45;;;13.98;;
80411;SDS011;69749;42.684;23.360;2023-08-24T07:49:31;17.38;;;13.95;;
80411;SDS011;69749;42.684;23.360;2023-08-24T07:51:56;19.00;;;14.48;;
80411;SDS011;69749;42.684;23.360;2023-08-24T07:54:22;18.20;;;14.98;;
80411;SDS011;69749;42.684;23.360;2023-08-24T07:56:47;17.33;;;13.93;;
80411;SDS011;69749;42.684;23.360;2023-08-24T07:59:12;15.65;;;13.93;;
80411;SDS011;69749;42.684;23.360;2023-08-24T08:01:38;18.40;;;14.35;;
80411;SDS011;69749;42.684;23.360;2023-08-24T08:04:03;20.20;;;15.68;;
80411;SDS011;69749;42.684;23.360;2023-08-24T08:06:29;22.02;;;14.45;;
80411;SDS011;69749;42.684;23.360;2023-08-24T08:08:54;15.50;;;13.85;;
80411;SDS011;69749;42.684;23.360;2023-08-24T08:11:20;18.73;;;14.68;;
80411;SDS011;69749;42.684;23.360;2023-08-24T08:13:46;18.20;;;14.10;;
80411;SDS011;69749;42.684;23.360;2023-08-24T08:16:11;20.50;;;15.27;;
80411;SDS011;69749;42.684;23.360;2023-08-24T08:18:37;22.00;;;15.15;;
80411;SDS011;69749;42.684;23.360;2023-08-24T08:21:09;17.45;;;13.73;;
80411;SDS011;69749;42.684;23.360;2023-08-24T08:23:39;21.23;;;13.82;;
80411;SDS011;69749;42.684;23.360;2023-08-24T08:26:04;17.13;;;13.82;;
80411;SDS011;69749;42.684;23.360;2023-08-24T08:28:30;16.58;;;12.88;;
80411;SDS011;69749;42.684;23.360;2023-08-24T08:30:58;17.63;;;12.60;;
80411;SDS011;69749;42.684;23.360;2023-08-24T08:33:24;17.88;;;14.20;;
80411;SDS011;69749;42.684;23.360;2023-08-24T08:35:49;19.38;;;12.75;;
80411;SDS011;69749;42.684;23.360;2023-08-24T08:38:14;22.92;;;14.40;;
80411;SDS011;69749;42.684;23.360;2023-08-24T08:40:40;19.98;;;12.75;;
80411;SDS011;69749;42.684;23.360;2023-08-24T08:43:06;17.50;;;13.57;;
80411;SDS011;69749;42.684;23.360;2023-08-24T08:45:32;20.48;;;14.10;;
80411;SDS011;69749;42.684;23.360;2023-08-24T08:47:59;16.08;;;12.35;;
80411;SDS011;69749;42.684;23.360;2023-08-24T08:50:25;16.30;;;11.93;;
80411;SDS011;69749;42.684;23.360;2023-08-24T08:52:50;15.10;;;13.38;;
80411;SDS011;69749;42.684;23.360;2023-08-24T08:55:16;15.77;;;12.07;;
80411;SDS011;69749;42.684;23.360;2023-08-24T08:57:43;16.98;;;12.88;;
80411;SDS011;69749;42.684;23.360;2023-08-24T09:00:10;15.45;;;13.27;;
80411;SDS011;69749;42.684;23.360;2023-08-24T09:02:38;17.33;;;12.68;;
80411;SDS011;69749;42.684;23.360;2023-08-24T09:05:04;14.95;;;13.38;;
80411;SDS011;69749;42.684;23.360;2023-08-24T09:07:30;14.88;;;11.93;;
80411;SDS011;69749;42.684;23.360;2023-08-24T09:09:55;17.15;;;12.13;;
80411;SDS011;69749;42.684;23.360;2023-08-24T09:12:21;14.73;;;13.23;;
80411;SDS011;69749;42.684;23.360;2023-08-24T09:14:46;17.33;;;11.77;;
80411;SDS011;69749;42.684;23.360;2023-08-24T09:17:19;13.75;;;12.35;;
80411;SDS011;69749;42.684;23.360;2023-08-24T09:19:45;13.48;;;12.07;;
80411;SDS011;69749;42.684;23.360;2023-08-24T09:22:11;14.65;;;11.93;;
80411;SDS011;69749;42.684;23.360;2023-08-24T09:24:36;14.60;;;12.48;;
80411;SDS011;69749;42.684;23.360;2023-08-24T09:27:17;20.55;;;14.75;;
80411;SDS011;69749;42.684;23.360;2023-08-24T09:29:47;17.63;;;12.65;;
80411;SDS011;69749;42.684;23.360;2023-08-24T09:32:14;14.13;;;12.65;;
80411;SDS011;69749;42.684;23.360;2023-08-24T09:34:40;17.80;;;12.98;;
80411;SDS011;69749;42.684;23.360;2023-08-24T09:37:12;17.10;;;12.85;;
80411;SDS011;69749;42.684;23.360;2023-08-24T09:39:39;17.10;;;13.43;;
80411;SDS011;69749;42.684;23.360;2023-08-24T09:42:05;16.27;;;13.75;;
80411;SDS011;69749;42.684;23.360;2023-08-24T09:44:30;14.70;;;12.98;;
80411;SDS011;69749;42.684;23.360;2023-08-24T09:46:56;15.48;;;13.20;;
80411;SDS011;69749;42.684;23.360;2023-08-24T09:49:21;17.67;;;13.20;;
80411;SDS011;69749;42.684;23.360;2023-08-24T09:51:47;14.23;;;12.15;;
80411;SDS011;69749;42.684;23.360;2023-08-24T09:54:14;15.40;;;12.60;;
80411;SDS011;69749;42.684;23.360;2023-08-24T09:56:42;17.08;;;13.38;;
80411;SDS011;69749;42.684;23.360;2023-08-24T09:59:15;15.27;;;12.98;;
80411;SDS011;69749;42.684;23.360;2023-08-24T10:01:47;15.25;;;12.65;;
80411;SDS011;69749;42.684;23.360;2023-08-24T10:06:50;14.13;;;12.73;;
80411;SDS011;69749;42.684;23.360;2023-08-24T10:09:19;13.63;;;12.23;;
80411;SDS011;69749;42.684;23.360;2023-08-24T10:11:52;15.35;;;12.43;;
80411;SDS011;69749;42.684;23.360;2023-08-24T10:16:53;18.48;;;14.00;;
80411;SDS011;69749;42.684;23.360;2023-08-24T10:19:20;14.75;;;12.40;;
80411;SDS011;69749;42.684;23.360;2023-08-24T10:21:47;15.43;;;12.13;;
80411;SDS011;69749;42.684;23.360;2023-08-24T10:24:15;13.25;;;11.80;;
80411;SDS011;69749;42.684;23.360;2023-08-24T10:26:41;13.85;;;11.57;;
80411;SDS011;69749;42.684;23.360;2023-08-24T10:29:07;12.88;;;10.73;;
80411;SDS011;69749;42.684;23.360;2023-08-24T10:31:33;14.35;;;12.50;;
80411;SDS011;69749;42.684;23.360;2023-08-24T10:33:59;15.75;;;12.45;;
80411;SDS011;69749;42.684;23.360;2023-08-24T10:36:26;14.63;;;10.88;;
80411;SDS011;69749;42.684;23.360;2023-08-24T10:38:55;12.60;;;10.55;;
80411;SDS011;69749;42.684;23.360;2023-08-24T10:41:27;13.32;;;10.48;;
80411;SDS011;69749;42.684;23.360;2023-08-24T10:43:52;14.77;;;12.05;;
80411;SDS011;69749;42.684;23.360;2023-08-24T10:46:30;13.50;;;11.48;;
80411;SDS011;69749;42.684;23.360;2023-08-24T10:49:00;14.52;;;12.27;;
80411;SDS011;69749;42.684;23.360;2023-08-24T10:51:28;16.80;;;15.00;;
80411;SDS011;69749;42.684;23.360;2023-08-24T10:53:58;13.85;;;12.00;;
80411;SDS011;69749;42.684;23.360;2023-08-24T10:56:38;16.35;;;12.80;;
80411;SDS011;69749;42.684;23.360;2023-08-24T11:04:19;20.35;;;13.10;;
80411;SDS011;69749;42.684;23.360;2023-08-24T11:06:51;14.18;;;11.38;;
80411;SDS011;69749;42.684;23.360;2023-08-24T11:09:21;14.07;;;11.32;;
80411;SDS011;69749;42.684;23.360;2023-08-24T11:11:58;18.10;;;12.15;;
80411;SDS011;69749;42.684;23.360;2023-08-24T11:14:25;14.95;;;11.88;;
80411;SDS011;69749;42.684;23.360;2023-08-24T11:19:17;13.32;;;11.93;;
80411;SDS011;69749;42.684;23.360;2023-08-24T11:21:43;13.30;;;11.82;;
80411;SDS011;69749;42.684;23.360;2023-08-24T11:24:13;17.08;;;11.73;;
80411;SDS011;69749;42.684;23.360;2023-08-24T11:26:43;13.15;;;11.38;;
80411;SDS011;69749;42.684;23.360;2023-08-24T11:29:09;14.73;;;12.35;;
80411;SDS011;69749;42.684;23.360;2023-08-24T11:31:36;13.20;;;11.30;;
80411;SDS011;69749;42.684;23.360;2023-08-24T11:34:02;13.07;;;11.73;;
80411;SDS011;69749;42.684;23.360;2023-08-24T11:36:29;15.85;;;12.65;;
80411;SDS011;69749;42.684;23.360;2023-08-24T11:38:59;15.23;;;12.30;;
80411;SDS011;69749;42.684;23.360;2023-08-24T11:41:24;14.50;;;12.25;;
80411;SDS011;69749;42.684;23.360;2023-08-24T11:43:58;16.17;;;12.15;;
80411;SDS011;69749;42.684;23.360;2023-08-24T11:46:24;15.82;;;11.75;;
80411;SDS011;69749;42.684;23.360;2023-08-24T11:48:50;16.63;;;12.27;;
80411;SDS011;69749;42.684;23.360;2023-08-24T11:51:16;14.80;;;12.15;;
80411;SDS011;69749;42.684;23.360;2023-08-24T11:53:43;13.65;;;11.68;;
80411;SDS011;69749;42.684;23.360;2023-08-24T11:56:10;15.57;;;12.45;;
80411;SDS011;69749;42.684;23.360;2023-08-24T11:58:37;14.55;;;12.27;;
80411;SDS011;69749;42.684;23.360;2023-08-24T12:01:10;16.83;;;12.05;;
80411;SDS011;69749;42.684;23.360;2023-08-24T12:03:37;14.60;;;11.90;;
80411;SDS011;69749;42.684;23.360;2023-08-24T12:06:13;14.70;;;11.90;;
80411;SDS011;69749;42.684;23.360;2023-08-24T12:08:40;12.98;;;11.18;;
80411;SDS011;69749;42.684;23.360;2023-08-24T12:11:16;12.65;;;11.35;;
80411;SDS011;69749;42.684;23.360;2023-08-24T12:13:46;13.63;;;10.90;;
80411;SDS011;69749;42.684;23.360;2023-08-24T12:16:17;12.93;;;10.82;;
80411;SDS011;69749;42.684;23.360;2023-08-24T12:18:53;13.38;;;10.52;;
80411;SDS011;69749;42.684;23.360;2023-08-24T12:21:23;14.10;;;11.32;;
80411;SDS011;69749;42.684;23.360;2023-08-24T12:23:59;12.82;;;10.32;;
80411;SDS011;69749;42.684;23.360;2023-08-24T12:26:26;11.45;;;10.25;;
80411;SDS011;69749;42.684;23.360;2023-08-24T12:28:52;13.27;;;10.20;;
80411;SDS011;69749;42.684;23.360;2023-08-24T12:31:19;13.20;;;10.10;;
80411;SDS011;69749;42.684;23.360;2023-08-24T12:33:45;17.08;;;11.52;;
80411;SDS011;69749;42.684;23.360;2023-08-24T12:36:10;15.18;;;11.63;;
80411;SDS011;69749;42.684;23.360;2023-08-24T12:38:36;18.80;;;11.38;;
80411;SDS011;69749;42.684;23.360;2023-08-24T12:41:01;14.45;;;11.20;;
80411;SDS011;69749;42.684;23.360;2023-08-24T12:43:27;13.05;;;11.73;;
80411;SDS011;69749;42.684;23.360;2023-08-24T12:45:52;19.23;;;11.98;;
80411;SDS011;69749;42.684;23.360;2023-08-24T12:48:18;16.92;;;11.35;;
80411;SDS011;69749;42.684;23.360;2023-08-24T12:50:43;14.30;;;11.27;;
80411;SDS011;69749;42.684;23.360;2023-08-24T12:53:09;14.93;;;11.23;;
80411;SDS011;69749;42.684;23.360;2023-08-24T12:55:35;12.45;;;10.07;;
80411;SDS011;69749;42.684;23.360;2023-08-24T12:58:01;13.45;;;10.80;;
80411;SDS011;69749;42.684;23.360;2023-08-24T13:00:27;17.33;;;11.20;;
80411;SDS011;69749;42.684;23.360;2023-08-24T13:02:53;14.55;;;11.27;;
80411;SDS011;69749;42.684;23.360;2023-08-24T13:05:18;16.73;;;11.88;;
80411;SDS011;69749;42.684;23.360;2023-08-24T13:07:44;15.52;;;11.15;;
80411;SDS011;69749;42.684;23.360;2023-08-24T13:10:12;14.38;;;11.63;;
80411;SDS011;69749;42.684;23.360;2023-08-24T13:12:39;15.18;;;12.05;;
80411;SDS011;69749;42.684;23.360;2023-08-24T13:15:04;14.50;;;11.75;;
80411;SDS011;69749;42.684;23.360;2023-08-24T13:17:30;16.88;;;12.13;;
80411;SDS011;69749;42.684;23.360;2023-08-24T13:19:56;16.38;;;11.73;;
80411;SDS011;69749;42.684;23.360;2023-08-24T13:22:21;18.77;;;12.15;;
80411;SDS011;69749;42.684;23.360;2023-08-24T13:24:47;15.70;;;11.95;;
80411;SDS011;69749;42.684;23.360;2023-08-24T13:27:12;15.95;;;11.57;;
80411;SDS011;69749;42.684;23.360;2023-08-24T13:29:38;15.05;;;11.82;;
80411;SDS011;69749;42.684;23.360;2023-08-24T13:32:03;15.75;;;10.93;;
80411;SDS011;69749;42.684;23.360;2023-08-24T13:34:30;14.93;;;10.50;;
80411;SDS011;69749;42.684;23.360;2023-08-24T13:36:56;14.10;;;11.57;;
80411;SDS011;69749;42.684;23.360;2023-08-24T13:39:23;17.48;;;11.77;;
80411;SDS011;69749;42.684;23.360;2023-08-24T13:41:48;16.85;;;10.82;;
80411;SDS011;69749;42.684;23.360;2023-08-24T13:44:14;13.32;;;11.50;;
80411;SDS011;69749;42.684;23.360;2023-08-24T13:46:39;16.42;;;11.85;;
80411;SDS011;69749;42.684;23.360;2023-08-24T13:49:04;16.90;;;11.45;;
80411;SDS011;69749;42.684;23.360;2023-08-24T13:51:30;12.57;;;11.38;;
80411;SDS011;69749;42.684;23.360;2023-08-24T13:53:55;17.48;;;11.68;;
80411;SDS011;69749;42.684;23.360;2023-08-24T13:56:21;16.95;;;11.55;;
80411;SDS011;69749;42.684;23.360;2023-08-24T13:58:46;14.80;;;11.30;;
80411;SDS011;69749;42.684;23.360;2023-08-24T14:01:12;14.80;;;11.27;;
80411;SDS011;69749;42.684;23.360;2023-08-24T14:03:38;16.30;;;11.38;;
80411;SDS011;69749;42.684;23.360;2023-08-24T14:06:05;14.18;;;12.05;;
80411;SDS011;69749;42.684;23.360;2023-08-24T14:08:31;15.57;;;11.85;;
80411;SDS011;69749;42.684;23.360;2023-08-24T14:10:56;14.02;;;11.65;;
80411;SDS011;69749;42.684;23.360;2023-08-24T14:13:22;17.02;;;11.38;;
80411;SDS011;69749;42.684;23.360;2023-08-24T14:15:50;14.25;;;11.00;;
80411;SDS011;69749;42.684;23.360;2023-08-24T14:18:15;15.20;;;12.23;;
80411;SDS011;69749;42.684;23.360;2023-08-24T14:20:41;16.17;;;11.00;;
80411;SDS011;69749;42.684;23.360;2023-08-24T14:23:07;16.92;;;11.40;;
80411;SDS011;69749;42.684;23.360;2023-08-24T14:25:33;14.63;;;11.48;;
80411;SDS011;69749;42.684;23.360;2023-08-24T14:27:58;14.93;;;12.35;;